createdAt,value
2019-03-22T00:00:56.050Z,24
2019-03-22T00:05:58.522Z,25
2019-03-22T00:11:00.983Z,20
2019-03-22T00:16:03.478Z,20
2019-03-22T00:21:05.935Z,25
2019-03-22T00:26:08.392Z,28
2019-03-22T00:31:10.920Z,28
2019-03-22T00:36:13.318Z,22
2019-03-22T00:41:15.771Z,31
2019-03-22T00:46:18.470Z,34
2019-03-22T00:51:20.762Z,26
2019-03-22T00:56:23.176Z,32
2019-03-22T01:06:28.294Z,28
2019-03-22T01:11:30.586Z,27
2019-03-22T01:16:33.028Z,30
2019-03-22T01:21:35.622Z,28
2019-03-22T01:26:37.949Z,29
2019-03-22T01:31:40.422Z,25
2019-03-22T01:36:44.361Z,28
2019-03-22T01:41:45.504Z,25
2019-03-22T01:46:47.813Z,30
2019-03-22T01:51:50.306Z,23
2019-03-22T01:56:52.791Z,30
2019-03-22T02:01:55.197Z,25
2019-03-22T02:06:57.671Z,27
2019-03-22T02:12:00.215Z,23
2019-03-22T02:17:02.580Z,25
2019-03-22T02:22:05.058Z,26
2019-03-22T02:27:07.505Z,29
2019-03-22T02:32:09.973Z,29
2019-03-22T02:37:12.468Z,26
2019-03-22T02:42:14.962Z,28
2019-03-22T02:47:17.507Z,27
2019-03-22T02:52:19.862Z,27
2019-03-22T02:57:22.301Z,23
2019-03-22T03:02:24.798Z,23
2019-03-22T03:07:27.247Z,22
2019-03-22T03:12:29.703Z,25
2019-03-22T03:17:32.126Z,24
2019-03-22T03:22:34.624Z,27
2019-03-22T03:27:37.079Z,28
2019-03-22T03:32:39.602Z,25
2019-03-22T03:37:42.030Z,25
2019-03-22T03:42:44.491Z,25
2019-03-22T03:47:46.912Z,25
2019-03-22T03:52:49.646Z,27
2019-03-22T03:57:51.870Z,24
2019-03-22T04:02:54.275Z,27
2019-03-22T04:08:01.754Z,28
2019-03-22T04:12:59.333Z,29
2019-03-22T04:18:01.659Z,31
2019-03-22T04:23:04.480Z,27
2019-03-22T04:28:06.592Z,31
2019-03-22T04:33:09.081Z,29
2019-03-22T04:38:11.540Z,32
2019-03-22T04:43:13.976Z,30
2019-03-22T04:48:16.517Z,35
2019-03-22T04:53:21.526Z,38
2019-03-22T04:58:21.364Z,29
2019-03-22T05:03:23.819Z,31
2019-03-22T05:13:28.757Z,29
2019-03-22T05:18:31.321Z,25
2019-03-22T05:23:33.685Z,33
2019-03-22T05:28:36.221Z,26
2019-03-22T05:33:38.587Z,27
2019-03-22T05:38:41.101Z,28
2019-03-22T05:43:43.510Z,27
2019-03-22T05:48:45.960Z,21
2019-03-22T05:53:48.421Z,25
2019-03-22T05:58:50.929Z,29
2019-03-22T06:03:53.349Z,20
2019-03-22T06:08:55.916Z,22
2019-03-22T06:13:58.445Z,24
2019-03-22T06:19:00.747Z,21
2019-03-22T06:24:03.195Z,23
2019-03-22T06:29:05.784Z,24
2019-03-22T06:34:08.245Z,20
2019-03-22T06:39:10.676Z,20
2019-03-22T06:44:13.163Z,21
2019-03-22T06:49:15.629Z,18
2019-03-22T06:54:18.102Z,15
2019-03-22T06:59:20.440Z,11
2019-03-22T07:04:22.898Z,11
2019-03-22T07:09:25.353Z,11
2019-03-22T07:14:27.877Z,11
2019-03-22T07:19:30.261Z,10
2019-03-22T07:24:32.719Z,13
2019-03-22T07:29:35.226Z,13
2019-03-22T07:34:37.632Z,12
2019-03-22T07:39:40.131Z,12
2019-03-22T07:44:42.603Z,14
2019-03-22T07:49:45.042Z,12
2019-03-22T07:54:47.606Z,12
2019-03-22T07:59:50.005Z,12
2019-03-22T08:04:52.392Z,13
2019-03-22T08:09:54.916Z,12
2019-03-22T08:14:57.867Z,12
2019-03-22T08:19:59.801Z,12
2019-03-22T08:25:02.395Z,12
2019-03-22T08:30:04.716Z,14
2019-03-22T08:35:07.251Z,13
2019-03-22T08:40:09.729Z,13
2019-03-22T08:45:12.137Z,12
2019-03-22T08:50:14.593Z,12
2019-03-22T08:55:17.140Z,14
2019-03-22T09:00:19.583Z,13
2019-03-22T09:05:22.011Z,13
2019-03-22T09:10:24.384Z,14
2019-03-22T09:15:26.855Z,17
2019-03-22T09:20:29.372Z,18
2019-03-22T09:25:31.764Z,18
2019-03-22T09:30:34.365Z,19
2019-03-22T09:35:36.774Z,17
2019-03-22T09:40:39.202Z,15
2019-03-22T09:45:41.630Z,15
2019-03-22T09:50:44.090Z,14
2019-03-22T09:55:46.548Z,13
2019-03-22T10:00:49.169Z,11
2019-03-22T10:05:51.561Z,13
2019-03-22T10:10:53.950Z,14
2019-03-22T10:15:56.516Z,13
2019-03-22T10:20:58.879Z,12
2019-03-22T10:26:01.405Z,14
2019-03-22T10:31:03.832Z,13
2019-03-22T10:36:06.276Z,12
2019-03-22T10:41:08.766Z,13
2019-03-22T10:46:11.295Z,10
2019-03-22T10:51:13.677Z,9
2019-03-22T10:56:16.183Z,9
2019-03-22T11:01:18.614Z,8
2019-03-22T11:06:25.655Z,8
2019-03-22T11:11:23.515Z,11
2019-03-22T11:16:26.118Z,10
2019-03-22T11:21:28.468Z,10
2019-03-22T11:26:30.911Z,10
2019-03-22T11:31:39.684Z,9
2019-03-22T11:36:35.910Z,10
2019-03-22T11:41:38.323Z,11
2019-03-22T11:46:40.842Z,12
2019-03-22T11:56:45.696Z,12
2019-03-22T12:01:48.189Z,13
2019-03-22T12:06:50.657Z,13
2019-03-22T12:11:53.116Z,11
2019-03-22T12:16:56.678Z,12
2019-03-22T12:21:58.064Z,13
2019-03-22T12:27:00.703Z,12
2019-03-22T12:32:02.931Z,13
2019-03-22T12:37:05.390Z,15
2019-03-22T12:42:07.859Z,13
2019-03-22T12:47:10.402Z,9
2019-03-22T12:52:12.838Z,9
2019-03-22T12:57:15.246Z,10
2019-03-22T13:02:17.705Z,7
2019-03-22T13:07:20.161Z,7
2019-03-22T13:12:22.606Z,6
2019-03-22T13:17:25.117Z,8
2019-03-22T13:22:27.569Z,7
2019-03-22T13:27:30.005Z,6
2019-03-22T13:32:32.630Z,6
2019-03-22T13:37:34.933Z,5
2019-03-22T13:42:37.427Z,5
2019-03-22T13:47:39.916Z,6
2019-03-22T13:52:42.621Z,9
2019-03-22T13:57:44.867Z,4
2019-03-22T14:02:47.234Z,5
2019-03-22T14:07:49.652Z,5
2019-03-22T14:12:52.134Z,4
2019-03-22T14:17:54.639Z,3
2019-03-22T14:22:57.058Z,3
2019-03-22T14:27:59.536Z,4
2019-03-22T14:38:04.422Z,3
2019-03-22T14:43:06.903Z,4
2019-03-22T14:48:09.431Z,5
2019-03-22T14:53:11.880Z,2
2019-03-22T14:58:14.243Z,3
2019-03-22T15:03:22.467Z,3
2019-03-22T15:08:19.177Z,4
2019-03-22T15:13:21.662Z,3
2019-03-22T15:18:24.131Z,5
2019-03-22T15:23:26.583Z,2
2019-03-22T15:28:29.057Z,4
2019-03-22T15:33:34.021Z,3
2019-03-22T15:43:36.370Z,4
2019-03-22T15:48:38.847Z,3
2019-03-22T15:53:41.347Z,4
2019-03-22T15:58:43.762Z,3
2019-03-22T16:03:46.384Z,2
2019-03-22T16:08:48.674Z,3
2019-03-22T16:13:51.237Z,2
2019-03-22T16:18:53.607Z,2
2019-03-22T16:23:56.057Z,3
2019-03-22T16:28:58.500Z,2
2019-03-22T16:34:00.955Z,4
2019-03-22T16:39:03.477Z,4
2019-03-22T16:44:05.938Z,5
2019-03-22T16:49:08.610Z,3
2019-03-22T16:54:10.924Z,5
2019-03-22T16:59:13.308Z,6
2019-03-22T17:04:15.733Z,4
2019-03-22T17:09:18.280Z,8
2019-03-22T17:14:21.793Z,10
2019-03-22T17:19:23.395Z,12
2019-03-22T17:24:25.579Z,8
2019-03-22T17:29:27.993Z,15
2019-03-22T17:34:30.443Z,13
2019-03-22T17:39:32.949Z,17
2019-03-22T17:44:35.371Z,19
2019-03-22T17:49:47.495Z,23
2019-03-22T17:54:40.283Z,23
2019-03-22T17:59:42.758Z,18
2019-03-22T18:04:45.231Z,9
2019-03-22T18:09:47.730Z,13
2019-03-22T18:14:50.145Z,10
2019-03-22T18:19:53.476Z,10
2019-03-22T18:24:55.069Z,13
2019-03-22T18:29:57.479Z,17
2019-03-22T18:34:59.939Z,13
2019-03-22T18:40:02.512Z,15
2019-03-22T18:45:04.941Z,32
2019-03-22T18:50:07.341Z,13
2019-03-22T18:55:09.882Z,12
2019-03-22T19:00:12.330Z,19
2019-03-22T19:05:14.715Z,15
2019-03-22T19:10:17.216Z,14
2019-03-22T19:15:19.614Z,14
2019-03-22T19:20:22.214Z,16
2019-03-22T19:25:24.529Z,11
2019-03-22T19:30:26.990Z,12
2019-03-22T19:35:29.434Z,13
2019-03-22T19:40:31.944Z,17
2019-03-22T19:45:34.333Z,13
2019-03-22T19:50:36.817Z,14
2019-03-22T19:55:39.262Z,14
2019-03-22T20:00:41.718Z,17
2019-03-22T20:05:44.226Z,21
2019-03-22T20:10:46.658Z,19
2019-03-22T20:15:49.159Z,14
2019-03-22T20:20:51.564Z,16
2019-03-22T20:25:54.001Z,22
2019-03-22T20:30:56.461Z,19
2019-03-22T20:35:59.042Z,25
2019-03-22T20:41:01.440Z,21
2019-03-22T20:46:03.829Z,26
2019-03-22T20:51:06.317Z,23
2019-03-22T20:56:08.748Z,50
2019-03-22T21:01:11.247Z,28
2019-03-22T21:06:13.714Z,23
2019-03-22T21:11:16.224Z,23
2019-03-22T21:16:18.611Z,22
2019-03-22T21:21:21.320Z,25
2019-03-22T21:26:23.505Z,26
2019-03-22T21:31:25.963Z,24
2019-03-22T21:36:28.408Z,27
2019-03-22T21:41:30.906Z,27
2019-03-22T21:46:33.347Z,25
2019-03-22T21:51:35.795Z,23
2019-03-22T21:56:38.232Z,26
2019-03-22T22:01:40.704Z,26
2019-03-22T22:06:43.581Z,28
2019-03-22T22:11:45.654Z,27
2019-03-22T22:16:48.365Z,29
2019-03-22T22:21:50.985Z,30
2019-03-22T22:26:53.003Z,35
2019-03-22T22:31:55.454Z,29
2019-03-22T22:36:57.967Z,31
2019-03-22T22:42:00.384Z,42
2019-03-22T22:47:02.835Z,31
2019-03-22T22:52:05.561Z,32
2019-03-22T23:02:10.266Z,30
2019-03-22T23:07:12.720Z,30
2019-03-22T23:12:15.133Z,29
2019-03-22T23:17:17.596Z,34
2019-03-22T23:22:20.097Z,32
2019-03-22T23:27:22.486Z,31
2019-03-22T23:32:24.983Z,31
2019-03-22T23:37:27.409Z,30
2019-03-22T23:42:29.863Z,27
2019-03-22T23:47:32.422Z,32
2019-03-22T23:52:34.771Z,33
2019-03-22T23:57:37.314Z,31
